Terminal Aerodrome Forecast
Issued by NWS

Home | Current Version | Previous Version | Graphics & Text | Print | Product List | Glossary On
Versions: 1 2 3 4 5 6 7 8 9 10 11 12 13 14 15 16 17 18
834
FTUS43 KABR 252246 AAA
TAFATY
TAF AMD
KATY 252246Z 2523/2618 04009KT P6SM BKN100
     FM260300 06005KT P6SM VCTS SCT040CB BKN100
     FM260700 03008KT P6SM BKN100=

USA.gov is the U.S. government's official web portal to all federal, state and local government web resources and services.